sensor_id;sensor_type;location;lat;lon;timestamp;P1;durP1;ratioP1;P2;durP2;ratioP2
67839;SDS011;54636;51.684;5.142;2023-07-09T00:01:54;10.27;;;8.05;;
67839;SDS011;54636;51.684;5.142;2023-07-09T00:04:19;23.73;;;6.70;;
67839;SDS011;54636;51.684;5.142;2023-07-09T00:06:45;10.27;;;7.15;;
67839;SDS011;54636;51.684;5.142;2023-07-09T00:09:14;12.40;;;6.70;;
67839;SDS011;54636;51.684;5.142;2023-07-09T00:11:42;7.32;;;6.65;;
67839;SDS011;54636;51.684;5.142;2023-07-09T00:14:09;8.63;;;7.35;;
67839;SDS011;54636;51.684;5.142;2023-07-09T00:16:36;7.90;;;7.10;;
67839;SDS011;54636;51.684;5.142;2023-07-09T00:19:03;7.60;;;6.90;;
67839;SDS011;54636;51.684;5.142;2023-07-09T00:21:30;10.15;;;7.20;;
67839;SDS011;54636;51.684;5.142;2023-07-09T00:23:59;8.10;;;7.00;;
67839;SDS011;54636;51.684;5.142;2023-07-09T00:26:29;8.18;;;7.35;;
67839;SDS011;54636;51.684;5.142;2023-07-09T00:28:56;8.60;;;7.40;;
67839;SDS011;54636;51.684;5.142;2023-07-09T00:31:21;13.75;;;7.35;;
67839;SDS011;54636;51.684;5.142;2023-07-09T00:33:48;10.95;;;7.43;;
67839;SDS011;54636;51.684;5.142;2023-07-09T00:36:29;16.15;;;7.88;;
67839;SDS011;54636;51.684;5.142;2023-07-09T00:38:58;10.55;;;7.03;;
67839;SDS011;54636;51.684;5.142;2023-07-09T00:41:31;11.43;;;7.28;;
67839;SDS011;54636;51.684;5.142;2023-07-09T00:43:59;14.23;;;7.25;;
67839;SDS011;54636;51.684;5.142;2023-07-09T00:49:12;9.90;;;6.75;;
67839;SDS011;54636;51.684;5.142;2023-07-09T00:51:42;12.18;;;7.60;;
67839;SDS011;54636;51.684;5.142;2023-07-09T00:54:19;17.80;;;7.30;;
67839;SDS011;54636;51.684;5.142;2023-07-09T00:56:50;9.82;;;6.85;;
67839;SDS011;54636;51.684;5.142;2023-07-09T00:59:20;18.25;;;7.10;;
67839;SDS011;54636;51.684;5.142;2023-07-09T01:01:49;9.85;;;6.18;;
67839;SDS011;54636;51.684;5.142;2023-07-09T01:04:15;10.88;;;7.00;;
67839;SDS011;54636;51.684;5.142;2023-07-09T01:06:45;14.07;;;7.68;;
67839;SDS011;54636;51.684;5.142;2023-07-09T01:09:15;14.35;;;7.78;;
67839;SDS011;54636;51.684;5.142;2023-07-09T01:11:41;17.90;;;8.00;;
67839;SDS011;54636;51.684;5.142;2023-07-09T01:14:07;8.68;;;6.97;;
67839;SDS011;54636;51.684;5.142;2023-07-09T01:17:08;9.60;;;7.30;;
67839;SDS011;54636;51.684;5.142;2023-07-09T01:19:30;14.55;;;7.90;;
67839;SDS011;54636;51.684;5.142;2023-07-09T01:22:07;19.52;;;7.60;;
67839;SDS011;54636;51.684;5.142;2023-07-09T01:27:18;8.63;;;6.70;;
67839;SDS011;54636;51.684;5.142;2023-07-09T01:32:14;8.57;;;7.50;;
67839;SDS011;54636;51.684;5.142;2023-07-09T01:34:44;11.88;;;7.63;;
67839;SDS011;54636;51.684;5.142;2023-07-09T01:37:13;10.40;;;8.05;;
67839;SDS011;54636;51.684;5.142;2023-07-09T01:39:40;9.27;;;7.45;;
67839;SDS011;54636;51.684;5.142;2023-07-09T01:42:07;11.05;;;7.55;;
67839;SDS011;54636;51.684;5.142;2023-07-09T01:44:33;13.23;;;7.70;;
67839;SDS011;54636;51.684;5.142;2023-07-09T01:47:00;14.43;;;7.03;;
67839;SDS011;54636;51.684;5.142;2023-07-09T01:49:29;9.52;;;7.90;;
67839;SDS011;54636;51.684;5.142;2023-07-09T01:52:00;15.75;;;7.40;;
67839;SDS011;54636;51.684;5.142;2023-07-09T01:54:28;13.35;;;7.60;;
67839;SDS011;54636;51.684;5.142;2023-07-09T01:57:11;14.27;;;8.70;;
67839;SDS011;54636;51.684;5.142;2023-07-09T01:59:44;10.23;;;7.07;;
67839;SDS011;54636;51.684;5.142;2023-07-09T02:02:10;8.43;;;7.30;;
67839;SDS011;54636;51.684;5.142;2023-07-09T02:04:44;13.77;;;8.40;;
67839;SDS011;54636;51.684;5.142;2023-07-09T02:07:10;11.50;;;7.97;;
67839;SDS011;54636;51.684;5.142;2023-07-09T02:09:35;12.73;;;8.13;;
67839;SDS011;54636;51.684;5.142;2023-07-09T02:12:01;9.13;;;8.23;;
67839;SDS011;54636;51.684;5.142;2023-07-09T02:14:27;10.20;;;8.13;;
67839;SDS011;54636;51.684;5.142;2023-07-09T02:16:53;16.58;;;8.63;;
67839;SDS011;54636;51.684;5.142;2023-07-09T02:19:18;16.30;;;7.88;;
67839;SDS011;54636;51.684;5.142;2023-07-09T02:21:44;12.35;;;8.43;;
67839;SDS011;54636;51.684;5.142;2023-07-09T02:24:09;11.15;;;7.82;;
67839;SDS011;54636;51.684;5.142;2023-07-09T02:26:34;13.75;;;8.02;;
67839;SDS011;54636;51.684;5.142;2023-07-09T02:29:00;11.20;;;7.88;;
67839;SDS011;54636;51.684;5.142;2023-07-09T02:31:26;11.30;;;8.30;;
67839;SDS011;54636;51.684;5.142;2023-07-09T02:33:55;10.63;;;8.23;;
67839;SDS011;54636;51.684;5.142;2023-07-09T02:36:23;10.32;;;7.40;;
67839;SDS011;54636;51.684;5.142;2023-07-09T02:38:50;11.57;;;8.20;;
67839;SDS011;54636;51.684;5.142;2023-07-09T02:41:15;12.25;;;10.05;;
67839;SDS011;54636;51.684;5.142;2023-07-09T02:43:41;14.85;;;9.85;;
67839;SDS011;54636;51.684;5.142;2023-07-09T02:46:06;12.20;;;9.45;;
67839;SDS011;54636;51.684;5.142;2023-07-09T02:48:32;16.17;;;9.60;;
67839;SDS011;54636;51.684;5.142;2023-07-09T02:50:57;12.68;;;9.10;;
67839;SDS011;54636;51.684;5.142;2023-07-09T02:53:23;18.15;;;9.40;;
67839;SDS011;54636;51.684;5.142;2023-07-09T02:55:48;13.18;;;9.68;;
67839;SDS011;54636;51.684;5.142;2023-07-09T02:58:13;11.88;;;8.98;;
67839;SDS011;54636;51.684;5.142;2023-07-09T03:00:39;11.00;;;8.75;;
67839;SDS011;54636;51.684;5.142;2023-07-09T03:03:04;10.40;;;8.57;;
67839;SDS011;54636;51.684;5.142;2023-07-09T03:05:30;10.20;;;8.73;;
67839;SDS011;54636;51.684;5.142;2023-07-09T03:07:55;9.75;;;8.73;;
67839;SDS011;54636;51.684;5.142;2023-07-09T03:10:20;14.95;;;8.63;;
67839;SDS011;54636;51.684;5.142;2023-07-09T03:12:46;15.10;;;8.77;;
67839;SDS011;54636;51.684;5.142;2023-07-09T03:15:11;12.40;;;8.18;;
67839;SDS011;54636;51.684;5.142;2023-07-09T03:17:37;12.43;;;8.70;;
67839;SDS011;54636;51.684;5.142;2023-07-09T03:20:02;16.50;;;9.00;;
67839;SDS011;54636;51.684;5.142;2023-07-09T03:22:29;14.73;;;9.20;;
67839;SDS011;54636;51.684;5.142;2023-07-09T03:24:55;12.15;;;9.52;;
67839;SDS011;54636;51.684;5.142;2023-07-09T03:27:20;12.38;;;9.48;;
67839;SDS011;54636;51.684;5.142;2023-07-09T03:29:46;14.77;;;9.43;;
67839;SDS011;54636;51.684;5.142;2023-07-09T03:32:11;10.25;;;9.23;;
67839;SDS011;54636;51.684;5.142;2023-07-09T03:34:36;16.80;;;9.70;;
67839;SDS011;54636;51.684;5.142;2023-07-09T03:37:02;15.35;;;10.05;;
67839;SDS011;54636;51.684;5.142;2023-07-09T03:39:27;10.75;;;9.20;;
67839;SDS011;54636;51.684;5.142;2023-07-09T03:41:53;13.75;;;10.13;;
67839;SDS011;54636;51.684;5.142;2023-07-09T03:44:18;14.27;;;9.45;;
67839;SDS011;54636;51.684;5.142;2023-07-09T03:46:44;11.00;;;9.38;;
67839;SDS011;54636;51.684;5.142;2023-07-09T03:49:09;12.52;;;9.35;;
67839;SDS011;54636;51.684;5.142;2023-07-09T03:51:34;14.40;;;9.98;;
67839;SDS011;54636;51.684;5.142;2023-07-09T03:54:00;16.30;;;10.55;;
67839;SDS011;54636;51.684;5.142;2023-07-09T03:56:25;15.35;;;9.50;;
67839;SDS011;54636;51.684;5.142;2023-07-09T03:58:51;13.30;;;8.93;;
67839;SDS011;54636;51.684;5.142;2023-07-09T04:01:16;12.75;;;9.02;;
67839;SDS011;54636;51.684;5.142;2023-07-09T04:03:41;13.70;;;9.63;;
67839;SDS011;54636;51.684;5.142;2023-07-09T04:06:07;12.23;;;9.40;;
67839;SDS011;54636;51.684;5.142;2023-07-09T04:08:32;11.18;;;9.45;;
67839;SDS011;54636;51.684;5.142;2023-07-09T04:11:01;12.70;;;9.45;;
67839;SDS011;54636;51.684;5.142;2023-07-09T04:13:28;11.88;;;10.10;;
67839;SDS011;54636;51.684;5.142;2023-07-09T04:15:57;14.70;;;10.20;;
67839;SDS011;54636;51.684;5.142;2023-07-09T04:18:22;13.07;;;9.70;;
67839;SDS011;54636;51.684;5.142;2023-07-09T04:20:48;13.10;;;10.70;;
67839;SDS011;54636;51.684;5.142;2023-07-09T04:23:14;14.45;;;9.73;;
67839;SDS011;54636;51.684;5.142;2023-07-09T04:25:40;12.18;;;10.13;;
67839;SDS011;54636;51.684;5.142;2023-07-09T04:28:06;15.07;;;9.88;;
67839;SDS011;54636;51.684;5.142;2023-07-09T04:30:32;11.20;;;9.25;;
67839;SDS011;54636;51.684;5.142;2023-07-09T04:32:57;11.60;;;9.77;;
67839;SDS011;54636;51.684;5.142;2023-07-09T04:35:22;12.57;;;10.07;;
67839;SDS011;54636;51.684;5.142;2023-07-09T04:37:48;13.52;;;10.00;;
67839;SDS011;54636;51.684;5.142;2023-07-09T04:40:14;13.55;;;11.35;;
67839;SDS011;54636;51.684;5.142;2023-07-09T04:42:42;17.33;;;10.98;;
67839;SDS011;54636;51.684;5.142;2023-07-09T04:45:08;11.30;;;10.00;;
67839;SDS011;54636;51.684;5.142;2023-07-09T04:47:35;14.52;;;10.55;;
67839;SDS011;54636;51.684;5.142;2023-07-09T04:50:02;14.05;;;11.57;;
67839;SDS011;54636;51.684;5.142;2023-07-09T04:52:28;14.07;;;10.43;;
67839;SDS011;54636;51.684;5.142;2023-07-09T04:54:55;15.50;;;11.70;;
67839;SDS011;54636;51.684;5.142;2023-07-09T04:57:21;15.63;;;12.07;;
67839;SDS011;54636;51.684;5.142;2023-07-09T04:59:47;14.63;;;11.45;;
67839;SDS011;54636;51.684;5.142;2023-07-09T05:02:14;13.00;;;11.27;;
67839;SDS011;54636;51.684;5.142;2023-07-09T05:04:39;18.80;;;12.55;;
67839;SDS011;54636;51.684;5.142;2023-07-09T05:07:05;18.40;;;13.52;;
67839;SDS011;54636;51.684;5.142;2023-07-09T05:09:31;21.90;;;13.30;;
67839;SDS011;54636;51.684;5.142;2023-07-09T05:11:57;13.75;;;12.20;;
67839;SDS011;54636;51.684;5.142;2023-07-09T05:14:23;15.90;;;12.30;;
67839;SDS011;54636;51.684;5.142;2023-07-09T05:16:48;20.15;;;12.65;;
67839;SDS011;54636;51.684;5.142;2023-07-09T05:19:14;15.63;;;13.00;;
67839;SDS011;54636;51.684;5.142;2023-07-09T05:21:39;16.63;;;13.77;;
67839;SDS011;54636;51.684;5.142;2023-07-09T05:24:05;19.55;;;15.00;;
67839;SDS011;54636;51.684;5.142;2023-07-09T05:26:31;18.05;;;14.73;;
67839;SDS011;54636;51.684;5.142;2023-07-09T05:28:56;20.83;;;16.33;;
67839;SDS011;54636;51.684;5.142;2023-07-09T05:31:22;18.63;;;15.90;;
67839;SDS011;54636;51.684;5.142;2023-07-09T05:33:47;21.88;;;17.65;;
67839;SDS011;54636;51.684;5.142;2023-07-09T05:36:13;28.98;;;18.83;;
67839;SDS011;54636;51.684;5.142;2023-07-09T05:38:41;26.52;;;18.95;;
67839;SDS011;54636;51.684;5.142;2023-07-09T05:41:08;24.20;;;16.92;;
67839;SDS011;54636;51.684;5.142;2023-07-09T05:43:36;27.95;;;18.13;;
67839;SDS011;54636;51.684;5.142;2023-07-09T05:46:02;21.00;;;16.42;;
67839;SDS011;54636;51.684;5.142;2023-07-09T05:48:29;19.42;;;17.42;;
67839;SDS011;54636;51.684;5.142;2023-07-09T05:50:55;25.63;;;18.92;;
67839;SDS011;54636;51.684;5.142;2023-07-09T05:53:20;26.88;;;17.25;;
67839;SDS011;54636;51.684;5.142;2023-07-09T05:55:46;23.75;;;16.13;;
67839;SDS011;54636;51.684;5.142;2023-07-09T05:58:12;18.52;;;16.15;;
67839;SDS011;54636;51.684;5.142;2023-07-09T06:00:37;19.17;;;15.88;;
67839;SDS011;54636;51.684;5.142;2023-07-09T06:03:06;21.13;;;15.70;;
67839;SDS011;54636;51.684;5.142;2023-07-09T06:05:35;18.05;;;15.20;;
67839;SDS011;54636;51.684;5.142;2023-07-09T06:08:01;18.52;;;14.13;;
67839;SDS011;54636;51.684;5.142;2023-07-09T06:10:26;19.88;;;14.93;;
67839;SDS011;54636;51.684;5.142;2023-07-09T06:12:52;24.77;;;14.57;;
67839;SDS011;54636;51.684;5.142;2023-07-09T06:15:17;19.58;;;14.73;;
67839;SDS011;54636;51.684;5.142;2023-07-09T06:17:43;16.10;;;13.85;;
67839;SDS011;54636;51.684;5.142;2023-07-09T06:20:08;20.13;;;14.27;;
67839;SDS011;54636;51.684;5.142;2023-07-09T06:22:35;18.33;;;13.77;;
67839;SDS011;54636;51.684;5.142;2023-07-09T06:25:01;23.90;;;14.05;;
67839;SDS011;54636;51.684;5.142;2023-07-09T06:27:26;16.98;;;13.35;;
67839;SDS011;54636;51.684;5.142;2023-07-09T06:29:52;15.20;;;13.18;;
67839;SDS011;54636;51.684;5.142;2023-07-09T06:32:17;18.33;;;13.25;;
67839;SDS011;54636;51.684;5.142;2023-07-09T06:34:43;16.83;;;12.43;;
67839;SDS011;54636;51.684;5.142;2023-07-09T06:37:08;17.05;;;12.93;;
67839;SDS011;54636;51.684;5.142;2023-07-09T06:39:36;14.98;;;12.40;;
67839;SDS011;54636;51.684;5.142;2023-07-09T06:42:02;16.08;;;11.73;;
67839;SDS011;54636;51.684;5.142;2023-07-09T06:44:27;14.13;;;11.10;;
67839;SDS011;54636;51.684;5.142;2023-07-09T06:46:52;12.35;;;10.57;;
67839;SDS011;54636;51.684;5.142;2023-07-09T06:49:18;14.88;;;10.95;;
67839;SDS011;54636;51.684;5.142;2023-07-09T06:51:43;15.65;;;10.02;;
67839;SDS011;54636;51.684;5.142;2023-07-09T06:54:10;11.55;;;8.63;;
67839;SDS011;54636;51.684;5.142;2023-07-09T06:56:37;14.40;;;8.57;;
67839;SDS011;54636;51.684;5.142;2023-07-09T06:59:02;13.10;;;8.13;;
67839;SDS011;54636;51.684;5.142;2023-07-09T07:01:27;18.40;;;8.70;;
67839;SDS011;54636;51.684;5.142;2023-07-09T07:03:53;11.55;;;7.95;;
67839;SDS011;54636;51.684;5.142;2023-07-09T07:06:18;10.20;;;7.72;;
67839;SDS011;54636;51.684;5.142;2023-07-09T07:08:44;7.70;;;7.00;;
67839;SDS011;54636;51.684;5.142;2023-07-09T07:11:09;9.55;;;7.35;;
67839;SDS011;54636;51.684;5.142;2023-07-09T07:13:35;10.52;;;7.60;;
67839;SDS011;54636;51.684;5.142;2023-07-09T07:16:03;12.52;;;7.20;;
67839;SDS011;54636;51.684;5.142;2023-07-09T07:18:33;10.05;;;7.55;;
67839;SDS011;54636;51.684;5.142;2023-07-09T07:20:59;9.98;;;7.55;;
67839;SDS011;54636;51.684;5.142;2023-07-09T07:23:24;10.27;;;7.47;;
67839;SDS011;54636;51.684;5.142;2023-07-09T07:25:50;13.43;;;7.30;;
67839;SDS011;54636;51.684;5.142;2023-07-09T07:28:16;8.23;;;6.40;;
67839;SDS011;54636;51.684;5.142;2023-07-09T07:30:42;7.57;;;6.65;;
67839;SDS011;54636;51.684;5.142;2023-07-09T07:33:08;10.48;;;6.57;;
67839;SDS011;54636;51.684;5.142;2023-07-09T07:35:37;10.43;;;6.00;;
67839;SDS011;54636;51.684;5.142;2023-07-09T07:38:02;11.23;;;5.80;;
67839;SDS011;54636;51.684;5.142;2023-07-09T07:40:28;11.15;;;6.15;;
67839;SDS011;54636;51.684;5.142;2023-07-09T07:42:53;6.57;;;5.30;;
67839;SDS011;54636;51.684;5.142;2023-07-09T07:45:20;6.88;;;6.03;;
67839;SDS011;54636;51.684;5.142;2023-07-09T07:47:46;6.70;;;6.10;;
67839;SDS011;54636;51.684;5.142;2023-07-09T07:50:11;7.38;;;5.93;;
67839;SDS011;54636;51.684;5.142;2023-07-09T07:52:37;8.70;;;6.10;;
67839;SDS011;54636;51.684;5.142;2023-07-09T07:55:06;7.07;;;6.18;;
67839;SDS011;54636;51.684;5.142;2023-07-09T07:57:32;9.20;;;5.70;;
67839;SDS011;54636;51.684;5.142;2023-07-09T07:59:58;8.05;;;6.05;;
67839;SDS011;54636;51.684;5.142;2023-07-09T08:02:23;7.47;;;6.00;;
67839;SDS011;54636;51.684;5.142;2023-07-09T08:04:49;14.18;;;6.70;;
67839;SDS011;54636;51.684;5.142;2023-07-09T08:07:16;8.20;;;6.28;;
67839;SDS011;54636;51.684;5.142;2023-07-09T08:09:43;10.30;;;5.65;;
67839;SDS011;54636;51.684;5.142;2023-07-09T08:12:09;9.93;;;6.30;;
67839;SDS011;54636;51.684;5.142;2023-07-09T08:14:37;12.57;;;5.97;;
67839;SDS011;54636;51.684;5.142;2023-07-09T08:17:03;13.25;;;6.05;;
67839;SDS011;54636;51.684;5.142;2023-07-09T08:19:30;8.30;;;5.90;;
67839;SDS011;54636;51.684;5.142;2023-07-09T08:21:56;14.07;;;5.68;;
67839;SDS011;54636;51.684;5.142;2023-07-09T08:24:21;7.43;;;6.63;;
67839;SDS011;54636;51.684;5.142;2023-07-09T08:26:47;6.30;;;5.70;;
67839;SDS011;54636;51.684;5.142;2023-07-09T08:29:12;6.43;;;5.55;;
67839;SDS011;54636;51.684;5.142;2023-07-09T08:31:38;7.40;;;5.88;;
67839;SDS011;54636;51.684;5.142;2023-07-09T08:34:04;6.03;;;5.45;;
67839;SDS011;54636;51.684;5.142;2023-07-09T08:36:31;10.57;;;5.75;;
67839;SDS011;54636;51.684;5.142;2023-07-09T08:38:56;12.48;;;5.57;;
67839;SDS011;54636;51.684;5.142;2023-07-09T08:47:02;10.00;;;5.75;;
67839;SDS011;54636;51.684;5.142;2023-07-09T08:49:38;8.77;;;5.90;;
67839;SDS011;54636;51.684;5.142;2023-07-09T08:52:09;9.10;;;5.55;;
67839;SDS011;54636;51.684;5.142;2023-07-09T08:54:43;8.60;;;5.57;;
67839;SDS011;54636;51.684;5.142;2023-07-09T08:57:29;8.50;;;6.07;;
67839;SDS011;54636;51.684;5.142;2023-07-09T09:00:05;8.80;;;5.93;;
67839;SDS011;54636;51.684;5.142;2023-07-09T09:05:14;10.00;;;6.60;;
67839;SDS011;54636;51.684;5.142;2023-07-09T09:07:44;20.23;;;6.28;;
67839;SDS011;54636;51.684;5.142;2023-07-09T09:10:13;11.65;;;5.50;;
67839;SDS011;54636;51.684;5.142;2023-07-09T09:12:48;8.05;;;5.97;;
67839;SDS011;54636;51.684;5.142;2023-07-09T09:15:17;5.97;;;5.05;;
67839;SDS011;54636;51.684;5.142;2023-07-09T09:17:45;9.10;;;5.50;;
67839;SDS011;54636;51.684;5.142;2023-07-09T09:20:18;9.70;;;5.55;;
67839;SDS011;54636;51.684;5.142;2023-07-09T09:25:33;5.22;;;4.70;;
67839;SDS011;54636;51.684;5.142;2023-07-09T09:28:04;7.47;;;5.25;;
67839;SDS011;54636;51.684;5.142;2023-07-09T09:30:30;8.40;;;5.88;;
67839;SDS011;54636;51.684;5.142;2023-07-09T09:32:57;10.27;;;5.38;;
67839;SDS011;54636;51.684;5.142;2023-07-09T09:35:31;7.63;;;6.07;;
67839;SDS011;54636;51.684;5.142;2023-07-09T09:37:58;7.13;;;4.65;;
67839;SDS011;54636;51.684;5.142;2023-07-09T09:40:26;17.92;;;5.40;;
67839;SDS011;54636;51.684;5.142;2023-07-09T09:42:56;11.13;;;5.30;;
67839;SDS011;54636;51.684;5.142;2023-07-09T09:45:28;6.03;;;5.30;;
67839;SDS011;54636;51.684;5.142;2023-07-09T09:47:59;7.18;;;5.57;;
67839;SDS011;54636;51.684;5.142;2023-07-09T09:50:26;5.50;;;5.00;;
67839;SDS011;54636;51.684;5.142;2023-07-09T09:52:57;10.15;;;6.10;;
67839;SDS011;54636;51.684;5.142;2023-07-09T09:55:28;9.13;;;5.75;;
67839;SDS011;54636;51.684;5.142;2023-07-09T09:57:55;9.52;;;5.47;;
67839;SDS011;54636;51.684;5.142;2023-07-09T10:00:23;11.55;;;5.75;;
67839;SDS011;54636;51.684;5.142;2023-07-09T10:02:52;6.60;;;5.70;;
67839;SDS011;54636;51.684;5.142;2023-07-09T10:05:39;9.30;;;5.57;;
67839;SDS011;54636;51.684;5.142;2023-07-09T10:08:20;9.48;;;5.45;;
67839;SDS011;54636;51.684;5.142;2023-07-09T10:14:03;9.73;;;5.88;;
67839;SDS011;54636;51.684;5.142;2023-07-09T10:16:42;12.13;;;5.50;;
67839;SDS011;54636;51.684;5.142;2023-07-09T10:19:14;10.50;;;6.05;;
67839;SDS011;54636;51.684;5.142;2023-07-09T10:21:46;8.15;;;5.43;;
67839;SDS011;54636;51.684;5.142;2023-07-09T10:29:39;5.82;;;4.90;;
67839;SDS011;54636;51.684;5.142;2023-07-09T10:40:20;8.63;;;5.50;;
67839;SDS011;54636;51.684;5.142;2023-07-09T10:42:54;12.80;;;5.60;;
67839;SDS011;54636;51.684;5.142;2023-07-09T10:45:26;8.27;;;5.28;;
67839;SDS011;54636;51.684;5.142;2023-07-09T10:47:58;6.13;;;5.50;;
67839;SDS011;54636;51.684;5.142;2023-07-09T10:50:34;11.10;;;5.38;;
67839;SDS011;54636;51.684;5.142;2023-07-09T10:53:05;5.55;;;5.00;;
67839;SDS011;54636;51.684;5.142;2023-07-09T10:55:43;9.07;;;5.82;;
67839;SDS011;54636;51.684;5.142;2023-07-09T11:00:41;6.55;;;5.22;;
67839;SDS011;54636;51.684;5.142;2023-07-09T11:03:22;7.15;;;6.28;;
67839;SDS011;54636;51.684;5.142;2023-07-09T11:08:32;11.83;;;5.97;;
67839;SDS011;54636;51.684;5.142;2023-07-09T11:11:10;8.35;;;5.95;;
67839;SDS011;54636;51.684;5.142;2023-07-09T11:13:52;9.90;;;5.95;;
67839;SDS011;54636;51.684;5.142;2023-07-09T11:16:37;12.85;;;6.10;;
67839;SDS011;54636;51.684;5.142;2023-07-09T11:19:05;7.05;;;5.93;;
67839;SDS011;54636;51.684;5.142;2023-07-09T11:21:57;14.55;;;7.43;;
67839;SDS011;54636;51.684;5.142;2023-07-09T11:24:49;10.93;;;7.30;;
67839;SDS011;54636;51.684;5.142;2023-07-09T11:27:26;18.98;;;7.57;;
67839;SDS011;54636;51.684;5.142;2023-07-09T11:29:59;11.80;;;7.28;;
67839;SDS011;54636;51.684;5.142;2023-07-09T11:32:46;9.80;;;7.07;;
67839;SDS011;54636;51.684;5.142;2023-07-09T11:35:19;7.43;;;6.70;;
67839;SDS011;54636;51.684;5.142;2023-07-09T11:37:47;9.38;;;7.40;;
67839;SDS011;54636;51.684;5.142;2023-07-09T11:40:13;9.43;;;6.95;;
67839;SDS011;54636;51.684;5.142;2023-07-09T11:42:58;8.18;;;7.38;;
67839;SDS011;54636;51.684;5.142;2023-07-09T11:45:28;10.68;;;7.68;;
67839;SDS011;54636;51.684;5.142;2023-07-09T11:50:52;9.75;;;7.90;;
67839;SDS011;54636;51.684;5.142;2023-07-09T11:53:31;15.82;;;9.02;;
67839;SDS011;54636;51.684;5.142;2023-07-09T11:56:12;14.52;;;9.60;;
67839;SDS011;54636;51.684;5.142;2023-07-09T11:58:47;13.05;;;10.75;;
67839;SDS011;54636;51.684;5.142;2023-07-09T12:01:14;16.02;;;11.30;;
67839;SDS011;54636;51.684;5.142;2023-07-09T12:03:44;15.77;;;11.00;;
67839;SDS011;54636;51.684;5.142;2023-07-09T12:06:18;17.45;;;11.10;;
67839;SDS011;54636;51.684;5.142;2023-07-09T12:08:50;12.45;;;11.15;;
67839;SDS011;54636;51.684;5.142;2023-07-09T12:11:28;11.73;;;10.60;;
67839;SDS011;54636;51.684;5.142;2023-07-09T12:14:00;13.35;;;11.98;;
67839;SDS011;54636;51.684;5.142;2023-07-09T12:16:31;12.55;;;10.48;;
67839;SDS011;54636;51.684;5.142;2023-07-09T12:19:00;14.07;;;10.20;;
67839;SDS011;54636;51.684;5.142;2023-07-09T12:21:25;14.27;;;11.50;;
67839;SDS011;54636;51.684;5.142;2023-07-09T12:23:52;15.50;;;11.35;;
67839;SDS011;54636;51.684;5.142;2023-07-09T12:26:19;12.70;;;11.10;;
67839;SDS011;54636;51.684;5.142;2023-07-09T12:28:55;14.80;;;10.20;;
67839;SDS011;54636;51.684;5.142;2023-07-09T12:31:27;11.65;;;9.88;;
67839;SDS011;54636;51.684;5.142;2023-07-09T12:33:55;13.60;;;9.77;;
67839;SDS011;54636;51.684;5.142;2023-07-09T12:36:23;10.00;;;9.13;;
67839;SDS011;54636;51.684;5.142;2023-07-09T12:38:49;9.02;;;8.13;;
67839;SDS011;54636;51.684;5.142;2023-07-09T12:41:22;11.57;;;9.50;;
67839;SDS011;54636;51.684;5.142;2023-07-09T12:43:52;12.88;;;7.38;;
67839;SDS011;54636;51.684;5.142;2023-07-09T12:46:19;9.70;;;7.97;;
67839;SDS011;54636;51.684;5.142;2023-07-09T12:48:45;14.85;;;7.70;;
67839;SDS011;54636;51.684;5.142;2023-07-09T12:51:29;10.63;;;8.02;;
67839;SDS011;54636;51.684;5.142;2023-07-09T12:54:12;13.43;;;7.50;;
67839;SDS011;54636;51.684;5.142;2023-07-09T12:56:40;8.57;;;7.20;;
67839;SDS011;54636;51.684;5.142;2023-07-09T12:59:13;12.65;;;7.22;;
67839;SDS011;54636;51.684;5.142;2023-07-09T13:01:46;11.45;;;6.97;;
67839;SDS011;54636;51.684;5.142;2023-07-09T13:04:13;8.73;;;6.47;;
67839;SDS011;54636;51.684;5.142;2023-07-09T13:06:39;6.95;;;5.50;;
67839;SDS011;54636;51.684;5.142;2023-07-09T13:09:13;5.13;;;4.60;;
67839;SDS011;54636;51.684;5.142;2023-07-09T13:11:44;4.85;;;3.95;;
67839;SDS011;54636;51.684;5.142;2023-07-09T13:14:15;4.35;;;3.95;;
67839;SDS011;54636;51.684;5.142;2023-07-09T13:16:43;4.10;;;3.70;;
67839;SDS011;54636;51.684;5.142;2023-07-09T13:19:08;4.90;;;4.20;;
67839;SDS011;54636;51.684;5.142;2023-07-09T13:21:37;6.22;;;4.00;;
67839;SDS011;54636;51.684;5.142;2023-07-09T13:24:08;5.43;;;4.07;;
67839;SDS011;54636;51.684;5.142;2023-07-09T13:26:38;7.68;;;3.75;;
67839;SDS011;54636;51.684;5.142;2023-07-09T13:29:09;5.07;;;4.20;;
67839;SDS011;54636;51.684;5.142;2023-07-09T13:31:37;5.13;;;4.38;;
67839;SDS011;54636;51.684;5.142;2023-07-09T13:34:04;4.93;;;4.15;;
67839;SDS011;54636;51.684;5.142;2023-07-09T13:36:44;5.90;;;4.72;;
67839;SDS011;54636;51.684;5.142;2023-07-09T13:39:12;11.13;;;4.57;;
67839;SDS011;54636;51.684;5.142;2023-07-09T13:41:39;5.50;;;4.32;;
67839;SDS011;54636;51.684;5.142;2023-07-09T13:44:09;4.60;;;4.20;;
67839;SDS011;54636;51.684;5.142;2023-07-09T13:46:40;6.72;;;4.43;;
67839;SDS011;54636;51.684;5.142;2023-07-09T13:49:13;6.80;;;3.95;;
67839;SDS011;54636;51.684;5.142;2023-07-09T13:51:43;4.22;;;3.90;;
67839;SDS011;54636;51.684;5.142;2023-07-09T13:57:05;3.53;;;2.72;;
67839;SDS011;54636;51.684;5.142;2023-07-09T13:59:34;3.85;;;2.60;;
67839;SDS011;54636;51.684;5.142;2023-07-09T14:02:00;6.90;;;2.75;;
67839;SDS011;54636;51.684;5.142;2023-07-09T14:04:27;6.70;;;3.05;;
67839;SDS011;54636;51.684;5.142;2023-07-09T14:06:53;11.93;;;3.35;;
67839;SDS011;54636;51.684;5.142;2023-07-09T14:09:18;9.43;;;3.92;;
67839;SDS011;54636;51.684;5.142;2023-07-09T14:11:45;17.77;;;5.55;;
67839;SDS011;54636;51.684;5.142;2023-07-09T14:16:44;11.77;;;5.50;;
67839;SDS011;54636;51.684;5.142;2023-07-09T14:19:13;11.57;;;5.40;;
67839;SDS011;54636;51.684;5.142;2023-07-09T14:21:44;6.28;;;4.57;;
67839;SDS011;54636;51.684;5.142;2023-07-09T14:24:16;8.90;;;4.05;;
67839;SDS011;54636;51.684;5.142;2023-07-09T14:26:47;8.23;;;4.03;;
67839;SDS011;54636;51.684;5.142;2023-07-09T14:29:13;10.02;;;4.25;;
67839;SDS011;54636;51.684;5.142;2023-07-09T14:31:40;10.23;;;4.72;;
67839;SDS011;54636;51.684;5.142;2023-07-09T14:36:49;8.35;;;4.60;;
67839;SDS011;54636;51.684;5.142;2023-07-09T14:39:19;12.30;;;4.70;;
67839;SDS011;54636;51.684;5.142;2023-07-09T14:41:46;12.75;;;5.05;;
67839;SDS011;54636;51.684;5.142;2023-07-09T14:44:22;13.38;;;4.97;;
67839;SDS011;54636;51.684;5.142;2023-07-09T14:46:50;9.52;;;4.90;;
67839;SDS011;54636;51.684;5.142;2023-07-09T14:49:17;13.80;;;5.55;;
67839;SDS011;54636;51.684;5.142;2023-07-09T14:51:43;9.05;;;5.53;;
67839;SDS011;54636;51.684;5.142;2023-07-09T14:54:21;8.93;;;4.85;;
67839;SDS011;54636;51.684;5.142;2023-07-09T14:56:52;10.45;;;6.30;;
67839;SDS011;54636;51.684;5.142;2023-07-09T14:59:19;11.98;;;5.68;;
67839;SDS011;54636;51.684;5.142;2023-07-09T15:01:45;15.75;;;6.07;;
67839;SDS011;54636;51.684;5.142;2023-07-09T15:06:49;13.45;;;7.25;;
67839;SDS011;54636;51.684;5.142;2023-07-09T15:09:16;12.13;;;6.40;;
67839;SDS011;54636;51.684;5.142;2023-07-09T15:11:42;12.88;;;6.57;;
67839;SDS011;54636;51.684;5.142;2023-07-09T15:14:11;13.98;;;6.53;;
67839;SDS011;54636;51.684;5.142;2023-07-09T15:16:37;13.27;;;6.15;;
67839;SDS011;54636;51.684;5.142;2023-07-09T15:19:12;11.98;;;6.20;;
67839;SDS011;54636;51.684;5.142;2023-07-09T15:21:38;15.13;;;6.22;;
67839;SDS011;54636;51.684;5.142;2023-07-09T15:24:04;17.42;;;6.28;;
67839;SDS011;54636;51.684;5.142;2023-07-09T15:26:30;10.88;;;6.60;;
67839;SDS011;54636;51.684;5.142;2023-07-09T15:28:57;13.20;;;6.20;;
67839;SDS011;54636;51.684;5.142;2023-07-09T15:31:22;13.40;;;5.88;;
67839;SDS011;54636;51.684;5.142;2023-07-09T15:33:48;10.90;;;5.53;;
67839;SDS011;54636;51.684;5.142;2023-07-09T15:36:13;14.55;;;7.15;;
67839;SDS011;54636;51.684;5.142;2023-07-09T15:38:39;12.52;;;7.47;;